Totland Bay, United Kingdom
Current Conditions -  °F | °C
As of 5:20 PM on Sunday 21 Dec 2014 (Local Time) from EGHH Reporting Station
Broken Clouds Broken Clouds  
Wind Chill: 11°   Ceiling: 1300
Heat Index: 11°   Visibility: 6mi
Dew Point:   Wind: 21mph
Humidity: 88%   Direction: 250°WSW
Pressure: 30.27"   Gusts: NA
Location:  50.68°N, 1.53°W
Report Text: EGHH 211720Z 25018KT 9999 BKN013 11/09 Q1025
Loading
Personal Weather Stations






























Interactive Weather Map New forecast layout! Learn more

10-Day Weather Forecast

Advertisements
Track Severe Weather on mobile